Time;durP1;ratioP1;P1;durP2;ratioP2;P2;SDS_P1;SDS_P2;PMS_P1;PMS_P2;Temp;Humidity;BMP_temperature;BMP_pressure;BME280_temperature;BME280_humidity;BME280_pressure;Samples;Min_cycle;Max_cycle;Signal;HPM_P1;HPM_P2
2024/03/06 00:00:38;;;;;;;16.05;11.07;;;6.00;99.90;;;;;;4984911;28;20198;-75
2024/03/06 00:03:07;;;;;;;14.55;10.43;;;5.90;99.90;;;;;;4977798;28;20306;-75
2024/03/06 00:05:34;;;;;;;14.93;10.07;;;5.90;99.90;;;;;;4995012;28;20206;-75
2024/03/06 00:08:03;;;;;;;16.92;11.02;;;5.90;99.90;;;;;;4993343;28;20202;-75
2024/03/06 00:10:30;;;;;;;13.68;10.27;;;5.90;99.90;;;;;;4997200;28;20232;-74
2024/03/06 00:12:57;;;;;;;13.55;9.30;;;5.90;99.90;;;;;;4993761;28;20222;-74
2024/03/06 00:15:24;;;;;;;13.70;9.60;;;5.90;99.90;;;;;;4990487;28;20202;-75
2024/03/06 00:17:51;;;;;;;12.27;10.05;;;5.90;99.90;;;;;;4996990;28;20198;-74
2024/03/06 00:20:20;;;;;;;13.95;10.05;;;5.90;99.90;;;;;;4997401;28;20200;-75
2024/03/06 00:22:47;;;;;;;16.05;10.38;;;5.90;99.90;;;;;;4995618;28;20220;-75
2024/03/06 00:25:14;;;;;;;16.92;10.68;;;5.90;99.90;;;;;;4994641;28;20272;-75
2024/03/06 00:27:41;;;;;;;12.95;10.25;;;5.90;99.90;;;;;;4992369;28;20222;-75
2024/03/06 00:30:11;;;;;;;16.48;11.32;;;5.90;99.90;;;;;;4994348;28;20222;-74
2024/03/06 00:32:38;;;;;;;14.00;9.32;;;5.90;99.90;;;;;;4985377;28;20199;-74
2024/03/06 00:35:06;;;;;;;15.20;10.50;;;6.00;99.90;;;;;;4989138;28;20205;-75
2024/03/06 00:37:34;;;;;;;19.40;11.73;;;6.00;99.90;;;;;;4991811;28;20194;-76
2024/03/06 00:40:01;;;;;;;15.88;9.73;;;6.00;99.90;;;;;;4993877;28;20264;-75
2024/03/06 00:42:28;;;;;;;15.43;11.40;;;5.90;99.90;;;;;;4993764;28;20198;-75
2024/03/06 00:44:56;;;;;;;12.35;9.63;;;5.90;99.90;;;;;;4995062;28;20201;-75
2024/03/06 00:47:23;;;;;;;15.48;10.75;;;5.90;99.90;;;;;;4993351;28;20205;-75
2024/03/06 00:49:50;;;;;;;14.20;11.30;;;5.90;99.90;;;;;;4991870;28;20645;-75
2024/03/06 00:52:17;;;;;;;12.65;9.75;;;6.00;99.90;;;;;;4992642;28;20202;-76
2024/03/06 00:54:45;;;;;;;15.43;9.85;;;6.00;99.90;;;;;;4991432;28;20677;-73
2024/03/06 00:57:12;;;;;;;14.43;9.77;;;6.00;99.90;;;;;;4992839;28;20221;-74
2024/03/06 00:59:39;;;;;;;13.23;10.35;;;5.90;99.90;;;;;;4992542;28;20285;-74
2024/03/06 01:02:06;;;;;;;13.50;10.25;;;5.90;99.90;;;;;;4992849;28;20202;-75
2024/03/06 01:04:33;;;;;;;14.50;10.20;;;5.90;99.90;;;;;;4992221;28;20254;-75
2024/03/06 01:07:00;;;;;;;11.88;8.60;;;5.90;99.90;;;;;;4987751;28;20245;-75
2024/03/06 01:09:29;;;;;;;15.77;11.35;;;5.90;99.90;;;;;;4992457;28;20229;-75
2024/03/06 01:11:57;;;;;;;14.90;10.35;;;5.90;99.90;;;;;;4992304;28;20206;-75
2024/03/06 01:14:24;;;;;;;12.88;9.75;;;5.90;99.90;;;;;;4992574;28;20230;-76
2024/03/06 01:16:51;;;;;;;19.30;10.70;;;5.80;99.90;;;;;;4991797;28;20198;-76
2024/03/06 01:19:18;;;;;;;17.73;10.50;;;5.80;99.90;;;;;;4987786;28;20207;-75
2024/03/06 01:21:45;;;;;;;15.32;10.52;;;5.90;99.90;;;;;;4989355;28;20250;-76
2024/03/06 01:24:12;;;;;;;17.92;11.13;;;5.90;99.90;;;;;;4997104;28;20613;-74
2024/03/06 01:26:40;;;;;;;14.70;10.23;;;5.90;99.90;;;;;;4995654;28;20684;-76
2024/03/06 01:29:08;;;;;;;14.32;9.85;;;6.00;99.90;;;;;;4995164;28;20652;-75
2024/03/06 01:31:35;;;;;;;14.18;9.48;;;6.00;99.90;;;;;;4995669;28;20204;-76
2024/03/06 01:34:02;;;;;;;14.80;11.30;;;6.00;99.90;;;;;;4995342;28;20217;-76
2024/03/06 01:36:29;;;;;;;14.55;9.68;;;6.00;99.90;;;;;;4995573;28;20202;-75
2024/03/06 01:38:56;;;;;;;16.50;11.00;;;6.00;99.90;;;;;;4996339;28;20202;-79
2024/03/06 01:41:23;;;;;;;15.80;12.13;;;6.00;99.90;;;;;;4995733;28;20202;-74
2024/03/06 01:43:50;;;;;;;36.20;22.23;;;5.90;99.90;;;;;;4996417;28;20222;-75
2024/03/06 01:46:19;;;;;;;17.55;12.00;;;5.90;99.90;;;;;;4995240;28;20233;-76
2024/03/06 01:48:46;;;;;;;16.77;11.13;;;5.80;99.90;;;;;;4997907;28;20221;-75
2024/03/06 01:51:13;;;;;;;18.27;10.70;;;5.80;99.90;;;;;;4997736;28;20214;-75
2024/03/06 01:53:41;;;;;;;18.65;12.25;;;5.70;99.90;;;;;;4997897;28;20249;-76
2024/03/06 01:56:11;;;;;;;13.63;10.02;;;5.70;99.90;;;;;;4997310;28;20198;-75
2024/03/06 01:58:40;;;;;;;14.40;10.32;;;5.80;99.90;;;;;;4995757;28;20209;-75
2024/03/06 02:01:08;;;;;;;15.80;10.52;;;5.70;99.90;;;;;;4995435;28;20719;-74
2024/03/06 02:03:36;;;;;;;19.55;12.13;;;5.70;99.90;;;;;;4993440;28;20214;-75
2024/03/06 02:06:05;;;;;;;14.80;10.43;;;5.80;99.90;;;;;;4997750;28;20233;-75
2024/03/06 02:08:33;;;;;;;17.13;10.38;;;5.70;99.90;;;;;;4988609;28;20791;-75
2024/03/06 02:11:02;;;;;;;15.63;12.52;;;5.70;99.90;;;;;;4992109;28;20202;-75
2024/03/06 02:13:29;;;;;;;16.05;9.90;;;5.80;99.90;;;;;;4994819;28;20257;-75
2024/03/06 02:15:56;;;;;;;14.43;10.77;;;5.70;99.90;;;;;;4994613;28;20245;-74
2024/03/06 02:18:23;;;;;;;16.08;10.20;;;5.80;99.90;;;;;;4994983;28;20600;-76
2024/03/06 02:20:52;;;;;;;17.67;9.80;;;5.80;99.90;;;;;;4987425;28;20203;-74
2024/03/06 02:23:20;;;;;;;18.60;12.20;;;5.80;99.90;;;;;;4991215;28;20221;-76
2024/03/06 02:25:48;;;;;;;14.77;10.98;;;5.80;99.90;;;;;;4994133;28;20230;-75
2024/03/06 02:28:16;;;;;;;16.08;11.63;;;5.80;99.90;;;;;;4995060;28;20264;-75
2024/03/06 02:30:48;;;;;;;18.92;11.70;;;5.80;99.90;;;;;;4995175;28;20281;-75
2024/03/06 02:33:15;;;;;;;12.48;9.55;;;5.90;99.90;;;;;;4994620;28;20228;-76
2024/03/06 02:35:44;;;;;;;15.32;11.95;;;5.90;99.90;;;;;;4994250;28;20249;-75
2024/03/06 02:38:12;;;;;;;13.77;10.63;;;5.90;99.90;;;;;;4994911;28;20194;-75
2024/03/06 02:40:39;;;;;;;17.45;12.50;;;5.90;99.90;;;;;;4988997;28;20572;-75
2024/03/06 02:43:06;;;;;;;15.05;10.18;;;5.90;99.90;;;;;;4994676;28;20225;-74
2024/03/06 02:45:33;;;;;;;11.35;10.00;;;5.90;99.90;;;;;;4994381;28;20213;-75
2024/03/06 02:48:01;;;;;;;15.73;11.77;;;5.90;99.90;;;;;;4993973;28;20206;-76
2024/03/06 02:50:28;;;;;;;14.55;10.48;;;6.00;99.90;;;;;;4994724;28;20206;-73
2024/03/06 02:52:55;;;;;;;12.93;10.68;;;5.90;99.90;;;;;;4994102;28;20225;-74
2024/03/06 02:55:24;;;;;;;16.85;12.63;;;5.90;99.90;;;;;;4994075;28;20202;-75
2024/03/06 02:57:51;;;;;;;16.73;10.70;;;5.90;99.90;;;;;;4994865;28;20190;-75
2024/03/06 03:00:19;;;;;;;16.65;12.05;;;5.90;99.90;;;;;;4994547;28;20257;-75
2024/03/06 03:02:46;;;;;;;15.73;11.23;;;5.80;99.90;;;;;;4988153;28;20232;-75
2024/03/06 03:05:13;;;;;;;19.10;10.98;;;5.70;99.90;;;;;;4993478;28;20656;-75
2024/03/06 03:07:40;;;;;;;18.52;12.13;;;5.60;99.90;;;;;;4986695;28;20245;-75
2024/03/06 03:10:10;;;;;;;13.10;9.35;;;5.60;99.90;;;;;;4993926;28;20265;-75
2024/03/06 03:12:39;;;;;;;16.15;10.25;;;5.60;99.90;;;;;;4992239;28;20198;-76
2024/03/06 03:15:07;;;;;;;14.32;10.57;;;5.60;99.90;;;;;;4992826;28;20199;-75
2024/03/06 03:17:34;;;;;;;15.10;11.30;;;5.60;99.90;;;;;;4995308;28;20270;-74
2024/03/06 03:20:09;;;;;;;16.65;10.57;;;5.60;99.90;;;;;;4989020;28;20719;-75
2024/03/06 03:22:36;;;;;;;16.23;11.93;;;5.60;99.90;;;;;;4984950;28;20201;-75
2024/03/06 03:25:07;;;;;;;15.48;10.23;;;5.60;99.90;;;;;;4989127;28;20258;-75
2024/03/06 03:49:05;;;;;;;18.55;12.20;;;5.50;99.90;;;;;;5000144;28;20209;-82
2024/03/06 04:02:18;;;;;;;15.77;10.57;;;5.40;99.90;;;;;;4921979;29;20210;-81
2024/03/06 04:11:24;;;;;;;16.77;10.85;;;5.40;99.90;;;;;;4913176;29;20209;-81
2024/03/06 04:26:30;;;;;;;18.40;12.23;;;5.70;99.90;;;;;;4988219;28;20257;-76
2024/03/06 04:28:57;;;;;;;19.45;12.52;;;5.70;99.90;;;;;;4992432;28;20245;-74
2024/03/06 04:31:24;;;;;;;13.82;10.35;;;5.70;99.90;;;;;;4988257;28;20726;-75
2024/03/06 04:33:51;;;;;;;18.80;11.30;;;5.70;99.90;;;;;;4983970;28;20226;-75
2024/03/06 04:36:19;;;;;;;20.30;12.43;;;5.60;99.90;;;;;;4988329;28;20202;-75
2024/03/06 04:38:46;;;;;;;20.02;12.65;;;5.60;99.90;;;;;;4994493;28;20654;-74
2024/03/06 04:41:13;;;;;;;16.83;12.13;;;5.60;99.90;;;;;;4985737;28;20198;-75
2024/03/06 04:43:42;;;;;;;15.98;11.77;;;5.60;99.90;;;;;;4984323;28;20273;-75
2024/03/06 04:46:14;;;;;;;16.85;11.75;;;5.50;99.90;;;;;;4982318;28;20201;-74
2024/03/06 04:48:41;;;;;;;21.05;12.85;;;5.50;99.90;;;;;;4979200;28;20289;-75
2024/03/06 04:51:09;;;;;;;20.52;12.93;;;5.50;99.90;;;;;;4988452;28;20684;-75
2024/03/06 04:53:37;;;;;;;16.48;10.25;;;5.50;99.90;;;;;;4991678;28;20237;-76
2024/03/06 04:56:04;;;;;;;17.23;11.30;;;5.50;99.90;;;;;;4990795;28;20256;-75
2024/03/06 04:58:30;;;;;;;12.73;9.52;;;5.40;99.90;;;;;;4996100;28;20213;-75
2024/03/06 05:00:59;;;;;;;18.00;12.18;;;5.40;99.90;;;;;;4996434;28;20723;-73
2024/03/06 05:03:26;;;;;;;19.95;12.02;;;5.40;99.90;;;;;;4995845;28;20711;-75
2024/03/06 05:05:53;;;;;;;14.43;10.68;;;5.40;99.90;;;;;;4990945;28;20214;-76
2024/03/06 05:08:20;;;;;;;24.05;12.63;;;5.40;99.90;;;;;;4995497;28;20696;-74
2024/03/06 05:10:47;;;;;;;18.58;11.13;;;5.40;99.90;;;;;;4995941;28;20198;-75
2024/03/06 05:13:14;;;;;;;17.70;13.02;;;5.40;99.90;;;;;;4996680;28;20230;-74
2024/03/06 05:15:42;;;;;;;16.63;11.38;;;5.40;99.90;;;;;;4995170;28;20202;-75
2024/03/06 05:18:10;;;;;;;15.68;11.55;;;5.40;99.90;;;;;;4996013;28;20229;-74
2024/03/06 05:20:37;;;;;;;12.77;9.90;;;5.40;99.90;;;;;;4993129;28;20206;-74
2024/03/06 05:23:06;;;;;;;15.70;11.10;;;5.30;99.90;;;;;;4995994;28;20583;-74
2024/03/06 05:25:32;;;;;;;14.90;10.25;;;5.20;99.90;;;;;;4994834;28;20210;-74
2024/03/06 05:27:59;;;;;;;16.67;12.00;;;5.30;99.90;;;;;;4995529;28;20300;-74
2024/03/06 05:30:26;;;;;;;22.27;11.88;;;5.20;99.90;;;;;;4984164;28;20242;-74
2024/03/06 05:32:53;;;;;;;19.33;12.00;;;5.20;99.90;;;;;;4995653;28;20299;-74
2024/03/06 05:35:22;;;;;;;17.17;13.30;;;5.20;99.90;;;;;;4987272;28;20661;-75
2024/03/06 05:37:49;;;;;;;15.35;12.10;;;5.10;99.90;;;;;;4992834;28;20213;-75
2024/03/06 05:40:16;;;;;;;18.35;11.55;;;5.10;99.90;;;;;;4988228;28;20207;-75
2024/03/06 05:42:43;;;;;;;15.93;10.73;;;5.10;99.90;;;;;;4988692;28;20241;-74
2024/03/06 05:45:12;;;;;;;12.70;9.15;;;5.10;99.90;;;;;;4991147;28;20233;-74
2024/03/06 05:47:39;;;;;;;17.45;13.23;;;5.10;99.90;;;;;;4995341;28;20261;-76
2024/03/06 05:50:07;;;;;;;18.95;10.70;;;5.20;99.90;;;;;;4989586;28;20199;-74
2024/03/06 05:52:36;;;;;;;15.30;12.75;;;5.20;99.90;;;;;;4987134;28;20259;-75
2024/03/06 05:55:03;;;;;;;15.63;11.05;;;5.20;99.90;;;;;;4991272;28;20210;-74
2024/03/06 05:57:30;;;;;;;18.17;11.90;;;5.20;99.90;;;;;;4986938;28;20290;-75
2024/03/06 05:59:58;;;;;;;17.15;11.60;;;5.20;99.90;;;;;;4985765;28;20258;-75
2024/03/06 06:02:25;;;;;;;18.42;14.02;;;5.10;99.90;;;;;;4988086;28;20214;-73
2024/03/06 06:04:51;;;;;;;15.32;12.20;;;5.00;99.90;;;;;;4986676;28;20253;-73
2024/03/06 06:07:18;;;;;;;23.42;11.75;;;5.00;99.90;;;;;;4981775;28;20773;-74
2024/03/06 06:09:47;;;;;;;14.88;11.15;;;4.90;99.90;;;;;;4987988;28;20245;-75
2024/03/06 06:12:14;;;;;;;30.10;15.43;;;4.90;99.90;;;;;;4991413;28;20212;-72
2024/03/06 06:14:41;;;;;;;16.08;11.48;;;4.90;99.90;;;;;;4992135;28;20254;-74
2024/03/06 06:17:08;;;;;;;19.40;11.25;;;4.90;99.90;;;;;;4992015;28;20577;-76
2024/03/06 06:19:34;;;;;;;20.98;11.23;;;4.90;99.90;;;;;;4994599;28;20343;-74
2024/03/06 06:22:01;;;;;;;16.67;12.40;;;4.90;99.90;;;;;;4990410;28;20278;-74
2024/03/06 06:24:28;;;;;;;21.15;13.35;;;4.90;99.90;;;;;;4997186;28;20238;-74
2024/03/06 06:26:57;;;;;;;20.67;12.55;;;4.90;99.90;;;;;;4994823;28;20617;-74
2024/03/06 06:29:24;;;;;;;15.68;10.68;;;4.90;99.90;;;;;;4986520;28;20257;-74
2024/03/06 06:31:50;;;;;;;17.65;12.63;;;5.00;99.90;;;;;;4994329;28;20444;-73
2024/03/06 06:34:18;;;;;;;16.13;10.80;;;4.90;99.90;;;;;;4988810;28;20295;-72
2024/03/06 06:36:47;;;;;;;18.08;13.57;;;4.90;99.90;;;;;;4984301;28;20210;-73
2024/03/06 06:39:14;;;;;;;19.50;10.70;;;4.90;99.90;;;;;;4992241;28;20217;-72
2024/03/06 06:41:41;;;;;;;16.38;11.93;;;4.90;99.90;;;;;;4986241;28;20199;-73
2024/03/06 06:44:09;;;;;;;26.10;13.32;;;4.90;99.90;;;;;;4990918;28;20225;-72
2024/03/06 06:46:36;;;;;;;14.65;11.52;;;4.90;99.90;;;;;;4993493;28;20300;-74
2024/03/06 06:49:03;;;;;;;23.60;12.68;;;5.00;99.90;;;;;;4988870;28;20223;-75
2024/03/06 06:51:30;;;;;;;20.40;12.73;;;5.00;99.90;;;;;;4986362;28;20206;-72
2024/03/06 06:53:57;;;;;;;16.88;12.07;;;4.90;99.90;;;;;;4983276;28;20226;-73
2024/03/06 06:56:25;;;;;;;20.88;12.50;;;5.00;99.90;;;;;;4982675;28;20265;-72
2024/03/06 06:58:52;;;;;;;18.05;12.95;;;5.00;99.90;;;;;;4982127;28;20206;-71
2024/03/06 07:01:20;;;;;;;16.75;11.95;;;5.00;99.90;;;;;;4990882;28;20707;-72
2024/03/06 07:03:47;;;;;;;23.90;13.82;;;5.00;99.90;;;;;;4987134;28;20226;-74
2024/03/06 07:06:14;;;;;;;16.50;12.10;;;5.00;99.90;;;;;;4985595;28;20274;-72
2024/03/06 07:08:41;;;;;;;15.70;11.30;;;5.10;99.90;;;;;;4988593;28;20650;-73
2024/03/06 07:11:08;;;;;;;19.13;12.90;;;5.10;99.90;;;;;;4992638;28;20238;-72
2024/03/06 07:14:02;;;;;;;13.77;10.82;;;5.00;99.90;;;;;;4994788;28;20222;-73
2024/03/06 07:16:30;;;;;;;21.48;13.23;;;5.10;99.90;;;;;;4994365;28;20197;-74
2024/03/06 07:18:58;;;;;;;23.30;14.13;;;5.10;99.90;;;;;;4997086;28;20268;-74
2024/03/06 07:21:42;;;;;;;18.35;13.38;;;5.20;99.90;;;;;;4996350;28;20209;-72
2024/03/06 07:24:09;;;;;;;17.35;13.57;;;5.20;99.90;;;;;;4991732;28;20253;-72
2024/03/06 07:26:36;;;;;;;23.30;13.68;;;5.30;99.90;;;;;;4984782;28;20214;-72
2024/03/06 07:29:03;;;;;;;18.67;13.20;;;5.20;99.90;;;;;;4989143;28;20308;-74
2024/03/06 07:31:32;;;;;;;19.40;12.73;;;5.20;99.90;;;;;;4988662;28;20207;-73
2024/03/06 07:33:59;;;;;;;21.30;13.05;;;5.20;99.90;;;;;;4980789;28;20269;-73
2024/03/06 07:36:26;;;;;;;13.00;10.95;;;5.20;99.90;;;;;;4986638;28;20294;-72
2024/03/06 07:38:53;;;;;;;16.60;12.30;;;5.20;99.90;;;;;;4985907;28;20230;-73
2024/03/06 07:41:20;;;;;;;20.75;11.90;;;5.20;99.90;;;;;;4986718;28;20198;-72
2024/03/06 07:43:46;;;;;;;19.77;13.23;;;5.10;99.90;;;;;;4987811;28;20258;-73
2024/03/06 07:46:13;;;;;;;18.63;11.57;;;5.20;99.90;;;;;;4986755;28;20220;-72
2024/03/06 07:48:45;;;;;;;16.77;11.63;;;5.20;99.90;;;;;;4992330;28;20236;-73
2024/03/06 07:51:12;;;;;;;16.27;11.63;;;5.30;99.90;;;;;;4983780;28;20214;-73
2024/03/06 07:53:39;;;;;;;20.77;15.60;;;5.30;99.90;;;;;;4987044;28;20221;-73
2024/03/06 07:56:06;;;;;;;20.63;13.00;;;5.30;99.90;;;;;;4980696;28;20262;-73
2024/03/06 07:58:33;;;;;;;23.08;12.85;;;5.30;99.90;;;;;;4988688;28;20202;-74
2024/03/06 08:01:00;;;;;;;19.73;12.18;;;5.30;99.90;;;;;;4986591;28;20233;-72
2024/03/06 08:03:27;;;;;;;19.67;11.60;;;5.30;99.90;;;;;;4989344;28;20237;-73
2024/03/06 08:05:55;;;;;;;15.07;12.07;;;5.40;99.90;;;;;;4988147;28;20202;-73
2024/03/06 08:08:24;;;;;;;19.52;14.35;;;5.40;99.90;;;;;;4985967;28;20581;-72
2024/03/06 08:10:50;;;;;;;19.77;11.95;;;5.40;99.90;;;;;;4982122;28;20728;-74
2024/03/06 08:13:19;;;;;;;20.13;11.93;;;5.50;99.90;;;;;;4981641;28;20288;-74
2024/03/06 08:15:46;;;;;;;16.65;12.13;;;5.50;99.90;;;;;;4980357;28;20253;-73
2024/03/06 08:18:14;;;;;;;23.73;12.82;;;5.50;99.90;;;;;;4980953;28;20657;-71
2024/03/06 08:20:41;;;;;;;16.35;12.30;;;5.60;99.90;;;;;;4991454;28;20217;-73
2024/03/06 08:23:10;;;;;;;15.80;12.00;;;5.60;99.90;;;;;;4989695;28;20222;-72
2024/03/06 08:25:37;;;;;;;18.13;12.23;;;5.60;99.90;;;;;;4987424;28;20300;-71
2024/03/06 08:28:05;;;;;;;21.67;13.75;;;5.70;99.90;;;;;;4988372;28;20288;-72
2024/03/06 08:30:32;;;;;;;19.90;13.60;;;5.70;99.90;;;;;;4995595;28;20194;-72
2024/03/06 08:33:00;;;;;;;21.80;13.48;;;5.70;99.90;;;;;;4990840;28;20225;-73
2024/03/06 08:35:27;;;;;;;18.90;13.20;;;5.80;99.90;;;;;;4985348;28;20252;-73
2024/03/06 08:37:54;;;;;;;15.07;12.05;;;5.90;99.90;;;;;;4994553;28;20747;-73
2024/03/06 08:40:23;;;;;;;16.50;12.32;;;6.00;99.90;;;;;;4991357;28;20236;-74
2024/03/06 08:42:50;;;;;;;17.90;13.00;;;6.00;99.90;;;;;;4990617;28;20228;-73
2024/03/06 08:45:17;;;;;;;18.95;13.57;;;6.00;99.90;;;;;;4998298;28;20234;-72
2024/03/06 08:47:45;;;;;;;20.25;13.07;;;6.10;99.90;;;;;;4990750;28;20231;-74
2024/03/06 08:50:13;;;;;;;18.60;13.50;;;6.10;99.90;;;;;;4997202;28;20606;-73
2024/03/06 08:52:41;;;;;;;21.88;14.30;;;6.10;99.90;;;;;;4990423;28;20225;-73
2024/03/06 08:55:08;;;;;;;18.10;11.30;;;6.20;99.90;;;;;;4997797;28;20613;-72
2024/03/06 08:57:40;;;;;;;18.67;11.48;;;6.30;99.90;;;;;;4991826;28;20225;-73
2024/03/06 09:00:10;;;;;;;25.17;15.57;;;6.40;99.90;;;;;;4998076;28;20190;-75
2024/03/06 09:02:38;;;;;;;16.80;11.88;;;6.50;99.90;;;;;;4996300;28;20198;-73
2024/03/06 09:05:06;;;;;;;19.45;14.05;;;6.60;99.90;;;;;;4993708;28;20626;-74
2024/03/06 09:07:37;;;;;;;16.48;11.95;;;6.70;99.90;;;;;;4987548;28;20298;-73
2024/03/06 09:10:06;;;;;;;18.10;12.57;;;6.90;99.90;;;;;;4998128;28;20617;-73
2024/03/06 09:12:32;;;;;;;21.35;12.07;;;7.00;99.90;;;;;;4989106;28;20260;-74
2024/03/06 09:15:02;;;;;;;16.70;13.13;;;7.00;99.90;;;;;;4998924;28;20555;-74
2024/03/06 09:17:29;;;;;;;15.90;11.80;;;7.10;99.90;;;;;;4991175;28;20248;-72
2024/03/06 09:19:56;;;;;;;17.60;12.13;;;7.30;99.90;;;;;;4999628;28;20205;-73
2024/03/06 09:22:23;;;;;;;16.77;11.93;;;7.50;99.90;;;;;;4999764;28;20275;-73
2024/03/06 09:24:50;;;;;;;13.95;11.65;;;7.70;99.90;;;;;;4996617;28;20293;-74
2024/03/06 09:41:46;;;;;;;18.85;12.40;;;8.60;99.90;;;;;;4756492;30;20241;-82
2024/03/06 10:05:58;;;;;;;17.50;12.30;;;8.70;99.90;;;;;;4949594;29;20239;-83
2024/03/06 10:09:43;;;;;;;;;;;;;;;;;;;;;
2024/03/06 10:16:17;;;;;;;16.67;13.18;;;9.10;99.90;;;;;;4865677;29;20282;-82
2024/03/06 10:27:27;;;;;;;15.90;12.43;;;9.50;99.90;;;;;;4998286;28;20289;-81
2024/03/06 10:30:15;;;;;;;18.40;13.10;;;9.40;99.90;;;;;;5002035;28;20286;-82
2024/03/06 10:32:45;;;;;;;19.13;13.00;;;9.40;99.90;;;;;;5000271;28;20278;-81
2024/03/06 10:35:21;;;;;;;19.00;13.85;;;9.60;99.90;;;;;;5006728;28;20222;-81
2024/03/06 10:37:51;;;;;;;21.00;14.23;;;9.50;99.90;;;;;;5001573;28;20269;-80
2024/03/06 10:40:20;;;;;;;17.90;13.35;;;9.50;99.90;;;;;;5013673;28;20206;-84
2024/03/06 10:42:48;;;;;;;16.75;13.38;;;9.50;99.90;;;;;;5022090;28;20237;-82
2024/03/06 10:45:31;;;;;;;18.73;13.85;;;9.50;99.90;;;;;;5021965;28;20217;-83
2024/03/06 10:48:11;;;;;;;22.50;15.45;;;9.50;99.90;;;;;;5018114;28;20282;-82
2024/03/06 10:53:59;;;;;;;24.48;15.60;;;9.30;99.90;;;;;;5010694;28;20319;-81
2024/03/06 10:56:26;;;;;;;20.17;14.95;;;9.50;99.90;;;;;;5001531;28;20230;-81
2024/03/06 10:58:58;;;;;;;20.48;14.32;;;9.30;99.90;;;;;;5004201;28;20212;-82
2024/03/06 11:01:27;;;;;;;22.23;16.80;;;9.40;99.90;;;;;;5004366;28;20218;-82
2024/03/06 11:04:04;;;;;;;20.50;14.38;;;9.50;99.90;;;;;;5004040;28;20257;-81
2024/03/06 11:13:36;;;;;;;18.15;13.80;;;9.80;99.90;;;;;;4999457;28;20234;-72
2024/03/06 11:16:03;;;;;;;22.75;17.40;;;9.80;99.90;;;;;;5003917;28;20202;-72
2024/03/06 11:18:46;;;;;;;25.90;17.15;;;10.00;99.90;;;;;;5001457;28;20205;-73
2024/03/06 11:21:34;;;;;;;21.85;17.00;;;10.00;99.90;;;;;;5004994;28;20213;-72
2024/03/06 11:24:15;;;;;;;29.80;17.40;;;10.00;99.90;;;;;;5003213;28;20699;-74
2024/03/06 11:26:44;;;;;;;27.92;17.67;;;10.00;99.90;;;;;;4997359;28;20202;-73
2024/03/06 11:29:12;;;;;;;20.20;15.77;;;9.90;99.90;;;;;;5000959;28;20288;-73
2024/03/06 11:31:39;;;;;;;24.85;16.80;;;9.90;99.90;;;;;;4998131;28;20715;-72
2024/03/06 11:34:07;;;;;;;22.23;17.77;;;9.90;99.90;;;;;;4995636;28;20229;-73
2024/03/06 11:36:37;;;;;;;18.13;15.18;;;9.90;99.90;;;;;;4999750;28;20695;-75
2024/03/06 11:39:06;;;;;;;22.77;15.40;;;9.90;99.90;;;;;;5009706;28;20201;-73
2024/03/06 11:41:47;;;;;;;24.05;15.77;;;9.80;99.90;;;;;;4994207;28;20203;-74
2024/03/06 11:44:17;;;;;;;22.77;14.07;;;9.70;99.90;;;;;;5000199;28;20279;-74
2024/03/06 11:46:44;;;;;;;20.10;13.98;;;9.60;99.90;;;;;;5002940;28;20292;-72
2024/03/06 11:49:20;;;;;;;23.02;13.93;;;9.50;99.90;;;;;;5005798;28;20221;-72
2024/03/06 11:51:48;;;;;;;17.15;15.00;;;9.50;99.90;;;;;;5009133;28;20589;-71
2024/03/06 11:54:15;;;;;;;21.27;14.98;;;9.40;99.90;;;;;;5011812;28;20222;-73
2024/03/06 11:56:44;;;;;;;21.52;15.38;;;9.40;99.90;;;;;;4998626;28;20216;-73
2024/03/06 11:59:11;;;;;;;21.40;14.82;;;9.30;99.90;;;;;;5014025;28;20263;-72
2024/03/06 12:01:41;;;;;;;18.38;14.05;;;9.50;99.90;;;;;;5007082;28;20659;-73
2024/03/06 12:04:08;;;;;;;20.50;14.13;;;9.70;99.90;;;;;;5006020;28;20222;-73
2024/03/06 12:06:36;;;;;;;20.95;14.85;;;9.90;99.90;;;;;;5017154;28;20236;-74
2024/03/06 12:09:03;;;;;;;18.58;13.95;;;10.00;99.90;;;;;;5024861;28;20209;-73
2024/03/06 12:11:30;;;;;;;18.67;13.35;;;10.20;99.90;;;;;;5009542;28;20413;-73
2024/03/06 12:13:58;;;;;;;23.05;16.00;;;10.30;99.90;;;;;;5009923;28;20730;-74
2024/03/06 12:16:25;;;;;;;20.00;13.35;;;10.40;99.70;;;;;;5008645;28;20275;-73
2024/03/06 12:18:58;;;;;;;20.60;13.38;;;10.40;99.40;;;;;;5012994;28;20190;-73
2024/03/06 12:21:30;;;;;;;17.35;14.38;;;10.50;99.00;;;;;;5003200;28;20288;-74
2024/03/06 12:24:06;;;;;;;23.10;13.93;;;10.40;98.80;;;;;;5007430;28;20296;-74
2024/03/06 12:26:33;;;;;;;23.20;12.98;;;10.60;98.90;;;;;;4996790;28;20542;-73
2024/03/06 12:29:07;;;;;;;16.80;11.73;;;10.60;98.40;;;;;;5012211;28;20275;-73
2024/03/06 12:31:37;;;;;;;18.80;13.05;;;10.70;98.10;;;;;;5012552;28;20224;-73
2024/03/06 12:34:15;;;;;;;16.15;12.10;;;10.60;97.80;;;;;;5002974;28;20236;-74
2024/03/06 12:36:42;;;;;;;20.27;13.70;;;10.50;97.70;;;;;;5008533;28;20311;-73
2024/03/06 12:39:12;;;;;;;18.23;12.23;;;10.40;98.00;;;;;;5000213;28;20197;-72
2024/03/06 12:41:40;;;;;;;18.13;13.90;;;10.40;98.50;;;;;;4998164;28;20216;-72
2024/03/06 12:44:07;;;;;;;21.77;13.73;;;10.40;98.30;;;;;;5001515;28;20232;-73
2024/03/06 12:46:34;;;;;;;19.23;12.65;;;10.40;98.50;;;;;;5008307;28;20296;-73
2024/03/06 12:49:01;;;;;;;23.08;14.05;;;10.30;98.50;;;;;;5005113;28;20209;-72
2024/03/06 12:51:30;;;;;;;19.23;14.20;;;10.50;98.60;;;;;;5010556;28;20208;-72
2024/03/06 12:53:57;;;;;;;18.17;14.07;;;10.40;98.20;;;;;;5000331;28;20233;-74
2024/03/06 12:56:25;;;;;;;25.77;14.68;;;10.50;98.50;;;;;;4998735;28;20241;-73
2024/03/06 12:58:52;;;;;;;21.38;13.48;;;10.50;98.80;;;;;;5010357;28;20202;-73
2024/03/06 13:01:19;;;;;;;19.30;13.75;;;10.60;98.70;;;;;;5005463;28;20714;-73
2024/03/06 13:03:49;;;;;;;19.88;14.52;;;10.50;98.70;;;;;;5007890;28;20225;-75
2024/03/06 13:06:16;;;;;;;18.00;13.02;;;10.60;99.00;;;;;;4995893;28;20257;-73
2024/03/06 13:08:44;;;;;;;20.38;13.45;;;10.70;99.10;;;;;;4999712;28;20612;-73
2024/03/06 13:11:11;;;;;;;18.55;15.07;;;10.80;98.80;;;;;;5006227;28;20257;-73
2024/03/06 13:13:38;;;;;;;19.77;14.02;;;10.70;98.90;;;;;;4999295;28;20264;-73
2024/03/06 13:16:06;;;;;;;20.48;14.60;;;10.70;99.00;;;;;;4998891;28;20198;-72
2024/03/06 13:18:33;;;;;;;19.77;15.80;;;10.70;98.80;;;;;;4996878;28;20603;-72
2024/03/06 13:21:00;;;;;;;20.98;14.00;;;10.50;98.70;;;;;;5005928;28;20207;-73
2024/03/06 13:23:27;;;;;;;20.73;15.43;;;10.60;98.80;;;;;;5000140;28;20257;-74
2024/03/06 13:25:56;;;;;;;20.88;15.65;;;10.50;98.70;;;;;;5009758;28;20247;-74
2024/03/06 13:28:23;;;;;;;21.50;14.98;;;10.60;98.70;;;;;;5014715;28;20293;-75
2024/03/06 13:30:51;;;;;;;24.88;17.90;;;10.60;98.90;;;;;;5004848;28;20679;-73
2024/03/06 13:33:18;;;;;;;23.95;16.80;;;10.70;98.90;;;;;;5003104;28;20298;-74
2024/03/06 13:35:45;;;;;;;27.83;16.13;;;10.90;98.80;;;;;;4998528;28;20206;-73
2024/03/06 13:38:12;;;;;;;22.63;16.25;;;10.90;98.70;;;;;;5007302;28;20661;-72
2024/03/06 13:40:39;;;;;;;21.17;15.45;;;10.90;98.40;;;;;;5002627;28;20673;-75
2024/03/06 13:43:08;;;;;;;25.17;16.13;;;11.00;98.60;;;;;;5001030;28;20312;-75
2024/03/06 13:45:37;;;;;;;20.88;16.23;;;10.90;98.40;;;;;;5003667;28;20285;-74
2024/03/06 13:48:15;;;;;;;21.38;16.90;;;10.90;98.30;;;;;;5007567;28;20760;-74
2024/03/06 13:50:44;;;;;;;21.00;15.10;;;10.80;98.50;;;;;;5009818;28;20311;-73
2024/03/06 13:53:11;;;;;;;25.13;17.17;;;10.70;98.70;;;;;;5007425;28;20273;-73
2024/03/06 13:55:38;;;;;;;22.30;15.48;;;10.80;98.70;;;;;;5003979;28;20300;-73
2024/03/06 13:58:06;;;;;;;20.38;15.20;;;10.90;98.80;;;;;;5015402;28;20610;-72
2024/03/06 14:00:35;;;;;;;24.02;15.05;;;11.00;98.60;;;;;;5006040;28;20233;-73
2024/03/06 14:03:02;;;;;;;24.90;15.65;;;11.10;98.40;;;;;;5001119;28;20565;-72
2024/03/06 14:05:29;;;;;;;24.40;17.38;;;11.10;98.00;;;;;;5004074;28;20274;-73
2024/03/06 14:07:56;;;;;;;20.02;14.88;;;11.30;98.10;;;;;;5002403;28;20677;-72
2024/03/06 14:10:24;;;;;;;23.73;16.50;;;11.40;97.80;;;;;;5002534;28;21035;-75
2024/03/06 14:12:52;;;;;;;19.63;15.00;;;11.40;97.70;;;;;;4998759;28;20323;-72
2024/03/06 14:15:23;;;;;;;23.48;17.58;;;11.40;97.80;;;;;;4995128;28;20206;-74
2024/03/06 14:17:50;;;;;;;21.77;16.00;;;11.40;97.90;;;;;;5005597;28;20257;-73
2024/03/06 14:20:17;;;;;;;19.77;15.07;;;11.30;98.20;;;;;;5006335;28;20224;-74
2024/03/06 14:22:45;;;;;;;19.48;14.75;;;11.50;98.00;;;;;;5006164;28;20256;-73
2024/03/06 14:25:12;;;;;;;24.15;16.92;;;11.50;97.90;;;;;;4996585;28;20226;-74
2024/03/06 14:27:40;;;;;;;19.48;14.55;;;11.70;97.80;;;;;;4999795;28;20202;-73
2024/03/06 14:30:08;;;;;;;23.10;16.13;;;11.90;97.80;;;;;;5001032;28;20222;-73
2024/03/06 14:32:37;;;;;;;21.27;16.52;;;11.70;97.60;;;;;;5000681;28;20279;-74